Time;durP1;ratioP1;P1;durP2;ratioP2;P2;SDS_P1;SDS_P2;PMS_P1;PMS_P2;Temp;Humidity;BMP_temperature;BMP_pressure;BME280_temperature;BME280_humidity;BME280_pressure;Samples;Min_cycle;Max_cycle;Signal;HPM_P1;HPM_P2
2022/03/06 00:00:18;;;;;;;57.93;18.60;;;-0.20;65.80;;;;;;4400393;28;661123;-71
2022/03/06 00:03:07;;;;;;;49.30;18.00;;;-0.20;79.20;;;;;;4376905;28;661291;-71
2022/03/06 00:05:55;;;;;;;41.47;16.87;;;-0.20;91.90;;;;;;4395800;28;660734;-71
2022/03/06 00:08:42;;;;;;;40.03;16.07;;;-0.20;93.40;;;;;;4373539;28;661265;-71
2022/03/06 00:11:29;;;;;;;44.90;16.30;;;-0.20;98.00;;;;;;4395827;28;660599;-71
2022/03/06 00:14:17;;;;;;;39.07;16.30;;;-0.20;99.90;;;;;;4373443;28;662017;-71
2022/03/06 00:17:05;;;;;;;38.23;16.50;;;-0.20;99.90;;;;;;4400052;28;661323;-72
2022/03/06 00:19:54;;;;;;;43.40;17.63;;;-0.20;99.90;;;;;;4373294;28;662163;-72
2022/03/06 00:22:41;;;;;;;33.10;15.17;;;-0.30;99.90;;;;;;4376175;28;660495;-72
2022/03/06 00:25:29;;;;;;;40.27;16.30;;;-0.30;99.90;;;;;;4395891;28;661279;-71
2022/03/06 00:28:16;;;;;;;39.43;16.60;;;-0.30;99.90;;;;;;4375917;28;660733;-71
2022/03/06 00:31:04;;;;;;;49.73;18.30;;;-0.30;99.90;;;;;;4395805;28;661570;-71
2022/03/06 00:33:51;;;;;;;49.10;17.87;;;-0.30;99.90;;;;;;4375861;28;660647;-71
2022/03/06 00:36:40;;;;;;;42.50;16.87;;;-0.30;99.90;;;;;;4394781;28;660616;-71
2022/03/06 00:39:28;;;;;;;47.20;17.90;;;-0.30;99.90;;;;;;4362699;28;662085;-72
2022/03/06 00:42:15;;;;;;;45.08;17.52;;;-0.30;99.90;;;;;;4380200;28;661066;-71
2022/03/06 00:45:03;;;;;;;41.93;17.03;;;-0.30;99.90;;;;;;4394145;28;661277;-71
2022/03/06 00:47:51;;;;;;;42.13;18.30;;;-0.30;99.90;;;;;;4373748;28;660912;-71
2022/03/06 00:50:39;;;;;;;49.07;18.37;;;-0.30;99.90;;;;;;4394264;28;661950;-71
2022/03/06 00:53:28;;;;;;;53.43;19.13;;;-0.30;99.90;;;;;;4375326;28;660561;-71
2022/03/06 00:56:15;;;;;;;50.37;19.30;;;-0.30;99.90;;;;;;4376244;28;661234;-71
2022/03/06 00:59:03;;;;;;;48.70;19.37;;;-0.30;99.90;;;;;;4393376;28;662312;-71
2022/03/06 01:01:50;;;;;;;53.97;20.07;;;-0.30;99.90;;;;;;4374865;28;661055;-71
2022/03/06 01:04:39;;;;;;;55.27;21.27;;;-0.30;99.90;;;;;;4393806;28;662149;-71
2022/03/06 01:07:27;;;;;;;47.37;19.90;;;-0.30;99.90;;;;;;4375272;28;660945;-71
2022/03/06 01:10:16;;;;;;;47.43;19.53;;;-0.40;99.90;;;;;;4394039;28;661577;-72
2022/03/06 01:13:03;;;;;;;51.30;19.43;;;-0.40;99.90;;;;;;4356353;28;661568;-71
2022/03/06 01:15:51;;;;;;;48.83;19.47;;;-0.40;99.90;;;;;;4374490;28;660860;-71
2022/03/06 01:18:38;;;;;;;44.70;18.90;;;-0.40;99.90;;;;;;4393373;28;661444;-71
2022/03/06 01:21:26;;;;;;;48.53;19.13;;;-0.40;99.90;;;;;;4375050;28;660833;-71
2022/03/06 01:24:13;;;;;;;43.93;18.50;;;-0.40;99.90;;;;;;4393246;28;661174;-71
2022/03/06 01:27:02;;;;;;;41.90;18.53;;;-0.40;99.90;;;;;;4375220;28;660569;-71
2022/03/06 01:29:50;;;;;;;45.87;18.77;;;-0.40;99.90;;;;;;4388358;28;660675;-71
2022/03/06 01:32:38;;;;;;;49.30;18.87;;;-0.40;99.90;;;;;;4391695;28;662543;-71
2022/03/06 01:35:25;;;;;;;44.83;17.90;;;-0.40;99.90;;;;;;4374721;28;661229;-71
2022/03/06 01:38:13;;;;;;;46.37;18.87;;;-0.40;99.90;;;;;;4391698;28;662467;-71
2022/03/06 01:41:01;;;;;;;40.92;18.80;;;-0.40;99.90;;;;;;4379289;28;660970;-71
2022/03/06 01:43:49;;;;;;;45.77;20.37;;;-0.40;99.90;;;;;;4397796;28;662346;-72
2022/03/06 01:46:37;;;;;;;56.20;21.63;;;-0.50;99.90;;;;;;4374934;28;661798;-72
2022/03/06 01:49:25;;;;;;;55.13;21.60;;;-0.50;99.90;;;;;;4393364;28;661607;-72
2022/03/06 01:52:12;;;;;;;52.33;21.27;;;-0.50;99.90;;;;;;4371161;28;662648;-71
2022/03/06 01:54:59;;;;;;;45.17;18.88;;;-0.50;99.90;;;;;;4392694;28;661369;-72
2022/03/06 01:57:48;;;;;;;42.73;18.93;;;-0.50;99.90;;;;;;4369229;28;661556;-72
2022/03/06 02:00:39;;;;;;;45.43;18.77;;;-0.60;99.90;;;;;;4375884;28;661066;-72
2022/03/06 02:03:26;;;;;;;47.40;19.02;;;-0.50;99.90;;;;;;4374312;28;661156;-71
2022/03/06 02:06:16;;;;;;;46.20;18.77;;;-0.50;99.90;;;;;;4393329;28;661182;-72
2022/03/06 02:09:03;;;;;;;50.20;19.37;;;-0.50;99.90;;;;;;4370680;28;661157;-72
2022/03/06 02:14:52;;;;;;;45.07;19.17;;;-0.60;99.90;;;;;;4347564;28;661620;-72
2022/03/06 02:17:41;;;;;;;48.17;20.73;;;-0.60;99.90;;;;;;4392685;28;661070;-72
2022/03/06 02:20:29;;;;;;;48.20;19.77;;;-0.60;99.90;;;;;;4370470;28;661356;-72
2022/03/06 02:23:18;;;;;;;45.73;19.53;;;-0.60;99.90;;;;;;4374436;28;660657;-71
2022/03/06 02:26:06;;;;;;;46.00;19.40;;;-0.60;99.90;;;;;;4378428;28;661018;-72
2022/03/06 02:28:53;;;;;;;47.17;20.03;;;-0.60;99.90;;;;;;4394244;28;661171;-72
2022/03/06 02:31:41;;;;;;;52.13;20.80;;;-0.60;99.90;;;;;;4377683;28;661370;-72
2022/03/06 02:34:28;;;;;;;49.63;21.07;;;-0.60;99.90;;;;;;4400961;28;661989;-72
2022/03/06 02:37:18;;;;;;;57.00;22.90;;;-0.60;99.90;;;;;;4377647;28;660464;-72
2022/03/06 02:40:09;;;;;;;47.77;21.40;;;-0.60;99.90;;;;;;4377380;28;660911;-72
2022/03/06 02:42:56;;;;;;;50.87;21.40;;;-0.60;99.90;;;;;;4378598;28;660984;-72
2022/03/06 02:45:44;;;;;;;45.43;19.17;;;-0.60;99.90;;;;;;4397336;28;661414;-72
2022/03/06 02:48:32;;;;;;;46.20;19.50;;;-0.60;99.90;;;;;;4375185;28;660549;-72
2022/03/06 02:51:19;;;;;;;44.00;18.63;;;-0.50;99.90;;;;;;4396537;28;660758;-72
2022/03/06 02:54:07;;;;;;;43.93;18.47;;;-0.60;99.90;;;;;;4372279;28;661084;-72
2022/03/06 02:56:55;;;;;;;45.03;19.00;;;-0.60;99.90;;;;;;4389800;28;661187;-72
2022/03/06 02:59:43;;;;;;;42.47;18.73;;;-0.60;99.90;;;;;;4374580;28;661789;-72
2022/03/06 03:02:30;;;;;;;40.33;17.57;;;-0.60;99.90;;;;;;4376994;28;660571;-72
2022/03/06 03:05:18;;;;;;;40.33;17.07;;;-0.60;99.90;;;;;;4395849;28;661254;-72
2022/03/06 03:08:06;;;;;;;35.10;16.53;;;-0.60;99.90;;;;;;4374027;28;661076;-72
2022/03/06 03:10:54;;;;;;;36.93;16.67;;;-0.60;99.90;;;;;;4395757;28;661438;-72
2022/03/06 03:13:43;;;;;;;38.10;15.77;;;-0.60;99.90;;;;;;4377390;28;660506;-72
2022/03/06 03:16:30;;;;;;;35.83;16.23;;;-0.70;99.90;;;;;;4386055;28;660633;-72
2022/03/06 03:19:19;;;;;;;44.83;16.90;;;-0.70;99.90;;;;;;4401219;28;661856;-71
2022/03/06 03:22:06;;;;;;;43.60;18.13;;;-0.70;99.90;;;;;;4375856;28;660751;-71
2022/03/06 03:24:53;;;;;;;37.33;17.63;;;-0.60;99.90;;;;;;4396671;28;662263;-71
2022/03/06 03:27:41;;;;;;;44.17;17.83;;;-0.70;99.90;;;;;;4376987;28;660845;-71
2022/03/06 03:30:30;;;;;;;36.80;17.43;;;-0.70;99.90;;;;;;4396746;28;662144;-71
2022/03/06 03:33:17;;;;;;;41.50;16.77;;;-0.70;99.90;;;;;;4372947;28;662452;-71
2022/03/06 03:36:05;;;;;;;38.20;18.00;;;-0.70;99.90;;;;;;4394205;28;660586;-72
2022/03/06 03:38:53;;;;;;;37.90;17.20;;;-0.70;99.90;;;;;;4372653;28;661299;-72
2022/03/06 03:41:40;;;;;;;44.73;17.40;;;-0.70;99.90;;;;;;4386640;28;660773;-71
2022/03/06 03:44:28;;;;;;;41.30;17.93;;;-0.70;99.90;;;;;;4395697;28;661915;-71
2022/03/06 03:47:17;;;;;;;44.63;17.58;;;-0.70;99.90;;;;;;4377628;28;660588;-71
2022/03/06 03:50:06;;;;;;;39.27;17.37;;;-0.70;99.90;;;;;;4396641;28;660718;-71
2022/03/06 03:52:53;;;;;;;38.70;16.87;;;-0.70;99.90;;;;;;4370834;28;660522;-71
2022/03/06 03:55:41;;;;;;;38.27;17.33;;;-0.70;99.90;;;;;;4375923;28;660487;-71
2022/03/06 03:58:28;;;;;;;35.77;16.97;;;-0.70;99.90;;;;;;4398000;28;661434;-71
2022/03/06 04:01:15;;;;;;;39.87;18.10;;;-0.70;99.90;;;;;;4376414;28;660932;-71
2022/03/06 04:04:05;;;;;;;40.93;17.47;;;-0.70;99.90;;;;;;4395506;28;662363;-72
2022/03/06 04:06:52;;;;;;;38.43;17.43;;;-0.70;99.90;;;;;;4372240;28;661853;-72
2022/03/06 04:09:39;;;;;;;36.63;17.17;;;-0.70;99.90;;;;;;4394931;28;661074;-71
2022/03/06 04:12:27;;;;;;;44.30;18.73;;;-0.70;99.90;;;;;;4373395;28;661684;-72
2022/03/06 04:15:14;;;;;;;49.22;18.88;;;-0.70;99.90;;;;;;4396145;28;660389;-72
2022/03/06 04:18:02;;;;;;;41.07;18.63;;;-0.70;99.90;;;;;;4372057;28;662004;-72
2022/03/06 04:20:51;;;;;;;39.43;17.83;;;-0.70;99.90;;;;;;4394440;28;660409;-71
2022/03/06 04:23:38;;;;;;;39.97;17.30;;;-0.70;99.90;;;;;;4372093;28;663075;-71
2022/03/06 04:26:26;;;;;;;42.47;17.60;;;-0.70;99.90;;;;;;4376832;28;661007;-72
2022/03/06 04:29:14;;;;;;;44.67;17.87;;;-0.70;99.90;;;;;;4393653;28;661884;-72
2022/03/06 04:32:01;;;;;;;40.97;16.87;;;-0.70;99.90;;;;;;4372246;28;661554;-71
2022/03/06 04:34:48;;;;;;;36.90;15.80;;;-0.70;99.90;;;;;;4395561;28;662343;-71
2022/03/06 04:37:37;;;;;;;39.77;15.93;;;-0.70;99.90;;;;;;4375849;28;660562;-72
2022/03/06 04:40:25;;;;;;;34.30;16.40;;;-0.80;99.90;;;;;;4393200;28;660638;-71
2022/03/06 04:43:13;;;;;;;42.33;16.63;;;-0.70;99.90;;;;;;4394513;28;661873;-71
2022/03/06 04:46:01;;;;;;;38.53;16.33;;;-0.70;99.90;;;;;;4375971;28;661187;-71
2022/03/06 04:48:48;;;;;;;36.43;15.67;;;-0.70;99.90;;;;;;4397934;28;661495;-72
2022/03/06 04:51:36;;;;;;;34.20;14.50;;;-0.80;99.90;;;;;;4373701;28;661334;-71
2022/03/06 04:54:25;;;;;;;32.23;14.93;;;-0.70;99.90;;;;;;4397516;28;661884;-72
2022/03/06 04:57:14;;;;;;;33.30;15.43;;;-0.80;99.90;;;;;;4373099;28;661183;-72
2022/03/06 05:00:01;;;;;;;32.10;15.10;;;-0.70;99.90;;;;;;4355443;28;660973;-71
2022/03/06 05:02:49;;;;;;;34.53;15.87;;;-0.80;99.90;;;;;;4388411;28;663033;-72
2022/03/06 05:05:36;;;;;;;34.20;14.67;;;-0.70;88.60;;;;;;4372972;28;661443;-71
2022/03/06 05:08:26;;;;;;;35.97;15.67;;;-0.70;49.10;;;;;;4394219;28;661354;-71
2022/03/06 05:11:15;;;;;;;33.77;14.40;;;-0.70;39.20;;;;;;4370933;28;661381;-72
2022/03/06 05:14:02;;;;;;;35.00;15.53;;;-0.80;19.20;;;;;;4370772;28;661570;-71
2022/03/06 05:16:50;;;;;;;29.13;14.30;;;-0.70;27.40;;;;;;4393511;28;661379;-72
2022/03/06 05:19:37;;;;;;;44.23;16.83;;;-0.70;15.60;;;;;;4370476;28;662128;-72
2022/03/06 05:22:26;;;;;;;35.63;14.70;;;-0.70;1.00;;;;;;4393549;28;660630;-71
2022/03/06 05:25:13;;;;;;;31.03;12.77;;;-0.70;1.00;;;;;;4398967;28;661195;-71
2022/03/06 05:28:02;;;;;;;27.90;12.17;;;-0.70;1.00;;;;;;4375929;28;659817;-72
2022/03/06 05:30:50;;;;;;;27.73;12.07;;;-0.70;1.00;;;;;;4394906;28;660449;-71
2022/03/06 05:33:37;;;;;;;26.23;12.60;;;-0.70;1.00;;;;;;4370363;28;661180;-72
2022/03/06 05:36:25;;;;;;;25.27;10.93;;;-0.70;1.00;;;;;;4395029;28;660040;-71
2022/03/06 05:39:12;;;;;;;25.07;12.03;;;-0.70;1.00;;;;;;4372181;28;661766;-71
2022/03/06 05:42:00;;;;;;;29.37;12.20;;;-0.70;1.00;;;;;;4394867;28;659246;-72
2022/03/06 05:44:49;;;;;;;24.63;12.10;;;-0.70;1.00;;;;;;4372136;28;661894;-71
2022/03/06 05:47:36;;;;;;;26.47;11.33;;;-0.70;1.00;;;;;;4376023;28;659485;-71
2022/03/06 05:50:24;;;;;;;16.77;8.40;;;-0.70;1.00;;;;;;4399164;28;660596;-72
2022/03/06 05:53:11;;;;;;;10.93;5.03;;;-0.80;1.00;;;;;;4377300;28;658652;-72
2022/03/06 05:55:59;;;;;;;13.33;5.73;;;-0.80;1.00;;;;;;4395094;28;659009;-71
2022/03/06 05:58:47;;;;;;;13.27;5.83;;;-0.90;1.00;;;;;;4377333;28;658592;-71
2022/03/06 06:01:36;;;;;;;11.73;5.60;;;-0.80;1.00;;;;;;4396072;28;658537;-72
2022/03/06 06:04:45;;;;;;;10.60;4.90;;;-0.80;1.00;;;;;;4373422;28;659093;-71
2022/03/06 06:07:33;;;;;;;8.37;4.10;;;-0.80;1.00;;;;;;4380530;28;658680;-71
2022/03/06 06:10:20;;;;;;;7.32;3.63;;;-0.70;1.00;;;;;;4382025;28;657331;-72
2022/03/06 06:13:09;;;;;;;7.50;3.30;;;-0.70;1.00;;;;;;4399954;28;657688;-71
2022/03/06 06:15:57;;;;;;;7.00;3.10;;;-0.70;1.00;;;;;;4381322;28;657873;-71
2022/03/06 06:18:46;;;;;;;5.60;2.87;;;-0.60;1.00;;;;;;4399846;28;658329;-71
2022/03/06 06:21:34;;;;;;;7.60;3.60;;;-0.60;1.00;;;;;;4377996;28;659057;-71
2022/03/06 06:24:21;;;;;;;6.47;3.43;;;-0.50;1.00;;;;;;4380480;28;658574;-72
2022/03/06 06:27:08;;;;;;;8.10;4.13;;;-0.50;1.00;;;;;;4399563;28;659377;-71
2022/03/06 06:29:56;;;;;;;13.07;4.50;;;-0.50;1.00;;;;;;4381484;28;657957;-71
2022/03/06 06:32:44;;;;;;;9.77;4.50;;;-0.40;1.00;;;;;;4399061;28;659670;-71
2022/03/06 06:35:34;;;;;;;7.17;3.70;;;-0.40;1.00;;;;;;4381530;28;657529;-72
2022/03/06 06:38:22;;;;;;;9.97;3.67;;;-0.40;1.00;;;;;;4380843;28;657606;-71
2022/03/06 06:41:09;;;;;;;7.97;3.63;;;-0.40;1.00;;;;;;4398244;28;658291;-72
2022/03/06 06:43:57;;;;;;;6.20;3.30;;;-0.30;1.00;;;;;;4380803;28;658378;-71
2022/03/06 06:46:44;;;;;;;8.07;3.43;;;-0.30;1.00;;;;;;4400167;28;657881;-72
2022/03/06 06:49:32;;;;;;;7.57;3.37;;;-0.30;1.00;;;;;;4381644;28;657789;-71
2022/03/06 06:52:21;;;;;;;6.90;3.80;;;-0.30;1.00;;;;;;4399853;28;657916;-71
2022/03/06 06:55:09;;;;;;;6.53;3.30;;;-0.30;1.00;;;;;;4377304;28;658578;-72
2022/03/06 06:57:56;;;;;;;7.97;4.07;;;-0.30;1.00;;;;;;4381594;28;657418;-71
2022/03/06 07:00:44;;;;;;;7.97;3.63;;;-0.20;1.00;;;;;;4399819;28;658065;-72
2022/03/06 07:03:31;;;;;;;8.73;4.73;;;-0.20;1.00;;;;;;4381163;28;657679;-72
2022/03/06 07:06:19;;;;;;;10.13;4.80;;;-0.20;1.00;;;;;;4399624;28;658142;-72
2022/03/06 07:09:08;;;;;;;8.27;4.13;;;-0.20;1.00;;;;;;4379447;28;659353;-72
2022/03/06 07:11:55;;;;;;;11.87;6.27;;;-0.10;1.00;;;;;;4383403;28;657767;-72
2022/03/06 07:14:43;;;;;;;15.80;6.50;;;-0.10;1.00;;;;;;4398267;28;660022;-72
2022/03/06 07:17:31;;;;;;;10.67;5.03;;;-0.10;1.00;;;;;;4386727;28;658825;-72
2022/03/06 07:20:18;;;;;;;11.60;5.50;;;-0.10;1.00;;;;;;4402521;28;659124;-72
2022/03/06 07:23:06;;;;;;;14.70;6.00;;;0.00;1.00;;;;;;4378982;28;659251;-72
2022/03/06 07:25:55;;;;;;;11.83;5.80;;;0.00;1.00;;;;;;4395506;28;658290;-72
2022/03/06 07:28:43;;;;;;;11.00;5.73;;;0.00;1.00;;;;;;4376451;28;658651;-72
2022/03/06 07:31:31;;;;;;;8.17;3.93;;;0.00;1.00;;;;;;4381552;28;657426;-71
2022/03/06 07:34:25;;;;;;;9.80;4.85;;;0.10;1.00;;;;;;4401079;28;658022;-72
2022/03/06 07:37:13;;;;;;;18.83;7.65;;;0.10;1.00;;;;;;4356331;28;657975;-72
2022/03/06 07:40:00;;;;;;;14.40;6.63;;;0.10;1.00;;;;;;4391950;28;658120;-72
2022/03/06 07:42:49;;;;;;;12.00;5.50;;;0.10;1.00;;;;;;4399354;28;658576;-71
2022/03/06 07:45:37;;;;;;;9.37;5.17;;;0.10;1.00;;;;;;4380332;28;658870;-72
2022/03/06 07:48:25;;;;;;;9.27;4.80;;;0.10;1.00;;;;;;4401198;28;656860;-72
2022/03/06 07:51:12;;;;;;;14.53;5.73;;;0.10;1.00;;;;;;4382763;28;657807;-72
2022/03/06 07:53:59;;;;;;;11.52;5.70;;;0.10;1.00;;;;;;4397343;28;658415;-72
2022/03/06 07:56:48;;;;;;;16.03;7.13;;;0.10;1.00;;;;;;4379174;28;658656;-72
2022/03/06 07:59:38;;;;;;;13.53;6.07;;;0.10;1.00;;;;;;4379114;28;658105;-72
2022/03/06 08:02:25;;;;;;;11.32;5.75;;;0.20;1.00;;;;;;4383694;28;657606;-72
2022/03/06 08:05:13;;;;;;;11.67;5.90;;;0.20;1.00;;;;;;4397669;28;659449;-72
2022/03/06 08:08:00;;;;;;;11.83;5.67;;;0.30;1.00;;;;;;4381948;28;658866;-72
2022/03/06 08:10:52;;;;;;;15.67;6.53;;;0.30;1.00;;;;;;4398619;28;659386;-72
2022/03/06 08:13:50;;;;;;;12.90;6.33;;;0.30;1.00;;;;;;4376029;28;657793;-72
2022/03/06 08:16:39;;;;;;;16.37;6.30;;;0.30;1.00;;;;;;4352995;28;658694;-71
2022/03/06 08:19:27;;;;;;;11.23;4.67;;;0.40;1.00;;;;;;4380507;28;657996;-71
2022/03/06 08:22:21;;;;;;;12.98;5.82;;;0.40;1.00;;;;;;4399244;28;657242;-71
2022/03/06 08:25:09;;;;;;;13.97;6.43;;;0.30;1.00;;;;;;4375780;28;658560;-72
2022/03/06 08:27:56;;;;;;;14.53;7.13;;;0.30;1.00;;;;;;4379567;28;657673;-71
2022/03/06 08:30:44;;;;;;;16.53;7.50;;;0.30;1.00;;;;;;4398538;28;658899;-71
2022/03/06 08:33:33;;;;;;;13.17;5.90;;;0.40;1.00;;;;;;4379658;28;657889;-71
2022/03/06 08:36:20;;;;;;;14.80;6.53;;;0.40;1.00;;;;;;4389004;28;657505;-71
2022/03/06 08:39:08;;;;;;;11.83;5.30;;;0.40;1.00;;;;;;4398068;28;659337;-71
2022/03/06 08:41:55;;;;;;;12.13;5.63;;;0.40;1.00;;;;;;4378259;28;658133;-72
2022/03/06 08:44:43;;;;;;;17.53;7.10;;;0.40;1.00;;;;;;4398512;28;659304;-71
2022/03/06 08:47:32;;;;;;;16.93;6.67;;;0.40;1.00;;;;;;4379417;28;657954;-71
2022/03/06 08:50:21;;;;;;;13.87;5.67;;;0.40;1.00;;;;;;4398418;28;658095;-72
2022/03/06 08:53:09;;;;;;;8.80;4.67;;;0.40;1.00;;;;;;4375060;28;658102;-72
2022/03/06 08:55:56;;;;;;;13.23;5.55;;;0.40;1.00;;;;;;4372885;28;656487;-71
2022/03/06 08:58:44;;;;;;;9.20;4.53;;;0.30;1.00;;;;;;4398880;28;658895;-71
2022/03/06 09:01:31;;;;;;;11.93;5.53;;;0.40;1.00;;;;;;4381664;28;657091;-71
2022/03/06 09:04:19;;;;;;;17.60;6.47;;;0.40;1.00;;;;;;4397667;28;658496;-71
2022/03/06 09:07:08;;;;;;;10.53;4.53;;;0.50;1.00;;;;;;4378991;28;657560;-71
2022/03/06 09:09:56;;;;;;;12.37;5.83;;;0.50;1.00;;;;;;4378864;28;657543;-71
2022/03/06 09:12:43;;;;;;;14.23;6.13;;;0.50;1.00;;;;;;4399696;28;658638;-71
2022/03/06 09:15:31;;;;;;;10.43;4.53;;;0.50;1.00;;;;;;4378871;28;658147;-71
2022/03/06 09:18:26;;;;;;;9.03;4.40;;;0.50;1.00;;;;;;4397184;28;658051;-71
2022/03/06 09:21:23;;;;;;;8.60;4.73;;;0.50;1.00;;;;;;4375814;28;657855;-71
2022/03/06 09:24:12;;;;;;;13.07;6.07;;;0.40;1.00;;;;;;4357505;28;657349;-71
2022/03/06 09:27:00;;;;;;;11.73;5.70;;;0.50;1.00;;;;;;4380525;28;657682;-71
2022/03/06 09:29:48;;;;;;;10.93;5.23;;;0.60;1.00;;;;;;4372400;28;658832;-71
2022/03/06 09:32:36;;;;;;;8.00;4.25;;;0.60;1.00;;;;;;4383956;28;658070;-71
2022/03/06 09:35:23;;;;;;;9.97;4.90;;;0.70;1.00;;;;;;4403076;28;657338;-71
2022/03/06 09:38:11;;;;;;;10.87;5.23;;;0.70;1.00;;;;;;4379442;28;656212;-71
2022/03/06 09:41:03;;;;;;;9.60;4.97;;;0.70;1.00;;;;;;4399757;28;658302;-71
2022/03/06 09:43:51;;;;;;;12.02;6.15;;;0.80;1.00;;;;;;4357112;28;656948;-71
2022/03/06 09:46:39;;;;;;;19.67;9.13;;;0.80;1.00;;;;;;4399981;28;658363;-71
2022/03/06 09:49:26;;;;;;;19.83;9.53;;;0.80;1.00;;;;;;4377392;28;658068;-71
2022/03/06 09:52:19;;;;;;;17.47;7.73;;;0.90;1.00;;;;;;4396864;28;659205;-71
2022/03/06 09:55:08;;;;;;;14.93;6.60;;;0.90;1.00;;;;;;4374606;28;657914;-71
2022/03/06 09:58:00;;;;;;;15.20;7.60;;;0.90;1.00;;;;;;4378770;28;657744;-71
2022/03/06 10:00:47;;;;;;;26.17;8.83;;;0.90;1.00;;;;;;4375449;28;659095;-71
2022/03/06 10:03:36;;;;;;;13.07;5.53;;;1.00;1.00;;;;;;4397852;28;658167;-72
2022/03/06 10:06:24;;;;;;;10.93;5.60;;;1.00;1.00;;;;;;4374547;28;658424;-71
2022/03/06 10:09:13;;;;;;;15.20;6.43;;;1.00;1.00;;;;;;4374849;28;657413;-71
2022/03/06 10:12:01;;;;;;;12.33;5.83;;;1.10;1.00;;;;;;4379935;28;657842;-71
2022/03/06 10:14:50;;;;;;;14.23;5.07;;;1.20;1.00;;;;;;4400900;28;658588;-71
2022/03/06 10:17:38;;;;;;;13.93;5.73;;;1.20;1.00;;;;;;4376826;28;658089;-71
2022/03/06 10:20:26;;;;;;;7.28;3.58;;;1.30;1.00;;;;;;4382152;28;657906;-71
2022/03/06 10:23:24;;;;;;;11.20;5.17;;;1.20;1.00;;;;;;4400902;28;656637;-71
2022/03/06 10:26:13;;;;;;;11.43;4.80;;;1.30;1.00;;;;;;4379426;28;657359;-71
2022/03/06 10:29:02;;;;;;;6.20;3.70;;;1.30;1.00;;;;;;4386990;28;657505;-71
2022/03/06 10:31:58;;;;;;;6.47;3.37;;;1.20;1.00;;;;;;4396886;28;656517;-71
2022/03/06 10:34:46;;;;;;;8.57;4.20;;;1.10;1.00;;;;;;4356447;28;656069;-71
2022/03/06 10:37:33;;;;;;;10.10;5.27;;;1.10;1.00;;;;;;4397418;28;657322;-71
2022/03/06 10:40:33;;;;;;;12.30;5.57;;;1.20;1.00;;;;;;4377487;28;657956;-71
2022/03/06 10:43:22;;;;;;;10.10;4.63;;;1.20;1.00;;;;;;4363050;28;657749;-71
2022/03/06 10:46:10;;;;;;;11.43;4.70;;;1.20;1.00;;;;;;4399828;28;657741;-71
2022/03/06 10:49:00;;;;;;;10.17;5.40;;;1.20;1.00;;;;;;4372297;28;658883;-71
2022/03/06 10:51:50;;;;;;;12.30;4.27;;;1.10;1.00;;;;;;4377314;28;657689;-71
2022/03/06 10:54:49;;;;;;;8.17;4.47;;;1.10;1.00;;;;;;4380270;28;658887;-71
2022/03/06 10:57:36;;;;;;;12.17;5.87;;;1.10;1.00;;;;;;4359786;28;657249;-71
2022/03/06 11:00:32;;;;;;;12.80;6.03;;;1.20;1.00;;;;;;4398619;28;658682;-71
2022/03/06 11:03:22;;;;;;;8.20;4.17;;;1.40;1.00;;;;;;4376723;28;657629;-71
2022/03/06 11:06:16;;;;;;;8.30;4.30;;;1.50;1.00;;;;;;4377646;28;656961;-71
2022/03/06 11:09:04;;;;;;;9.07;4.33;;;1.40;1.00;;;;;;4378046;28;657392;-71
2022/03/06 11:11:52;;;;;;;8.77;4.40;;;1.50;1.00;;;;;;4380313;28;656624;-71
2022/03/06 11:14:39;;;;;;;12.17;5.47;;;1.60;1.00;;;;;;4403367;28;656546;-71
2022/03/06 11:17:27;;;;;;;7.63;3.93;;;1.60;1.00;;;;;;4380263;28;657869;-71
2022/03/06 11:20:15;;;;;;;7.97;3.60;;;1.60;1.00;;;;;;4397252;28;656418;-71
2022/03/06 11:23:10;;;;;;;9.00;3.70;;;1.70;1.00;;;;;;4400463;28;657894;-71
2022/03/06 11:26:23;;;;;;;15.03;5.23;;;1.60;1.00;;;;;;4351021;28;656922;-71
2022/03/06 11:29:28;;;;;;;9.43;4.63;;;1.60;1.00;;;;;;4358978;28;658157;-71
2022/03/06 11:32:23;;;;;;;7.80;4.10;;;1.70;1.00;;;;;;4371036;28;657080;-71
2022/03/06 11:35:11;;;;;;;7.60;4.43;;;1.70;1.00;;;;;;4361104;28;656923;-71
2022/03/06 11:38:00;;;;;;;9.10;4.17;;;1.70;1.00;;;;;;4399643;28;656964;-71
2022/03/06 11:40:50;;;;;;;11.90;5.17;;;1.70;1.00;;;;;;4377844;28;657700;-72
2022/03/06 11:43:44;;;;;;;9.95;4.55;;;1.70;1.00;;;;;;4380490;28;657840;-71
2022/03/06 11:46:31;;;;;;;8.67;3.97;;;1.80;1.00;;;;;;4358951;28;657190;-71
2022/03/06 11:49:19;;;;;;;12.73;5.53;;;1.80;1.00;;;;;;4400135;28;657421;-71
2022/03/06 11:52:26;;;;;;;10.17;4.73;;;1.60;1.00;;;;;;4380526;28;658405;-72
2022/03/06 11:55:29;;;;;;;12.83;5.83;;;1.60;1.00;;;;;;4376099;28;658290;-71
2022/03/06 11:58:18;;;;;;;14.10;6.13;;;1.60;1.00;;;;;;4376975;28;658201;-71
2022/03/06 12:01:06;;;;;;;13.27;5.83;;;1.50;1.00;;;;;;4379852;28;657386;-71
2022/03/06 12:03:55;;;;;;;7.87;4.43;;;1.50;1.00;;;;;;4399012;28;658504;-71
2022/03/06 12:06:44;;;;;;;12.47;4.93;;;1.50;1.00;;;;;;4381033;28;657978;-71
2022/03/06 12:09:32;;;;;;;10.43;4.50;;;1.40;1.00;;;;;;4379109;28;657564;-71
2022/03/06 12:12:21;;;;;;;9.63;4.73;;;1.40;1.00;;;;;;4396066;28;658085;-71
2022/03/06 12:15:16;;;;;;;7.30;4.10;;;1.40;1.00;;;;;;4377349;28;657753;-71
2022/03/06 12:18:04;;;;;;;10.43;4.80;;;1.40;1.00;;;;;;4377141;28;656904;-71
2022/03/06 12:20:52;;;;;;;8.47;4.03;;;1.50;1.00;;;;;;4375945;28;657702;-71
2022/03/06 12:23:39;;;;;;;7.80;4.30;;;1.60;1.00;;;;;;4399668;28;656360;-71
2022/03/06 12:26:48;;;;;;;7.17;4.07;;;1.70;1.00;;;;;;4378370;28;656877;-71
2022/03/06 12:29:57;;;;;;;17.70;7.10;;;1.60;1.00;;;;;;4357466;28;656556;-71
2022/03/06 12:32:45;;;;;;;9.03;4.90;;;1.70;1.00;;;;;;4375660;28;657616;-71
2022/03/06 12:35:33;;;;;;;10.03;4.60;;;1.70;1.00;;;;;;4376923;28;657504;-71
2022/03/06 12:38:22;;;;;;;10.33;5.13;;;1.70;1.00;;;;;;4379941;28;657453;-71
2022/03/06 12:41:10;;;;;;;33.03;11.83;;;1.70;1.00;;;;;;4390841;28;657930;-71
2022/03/06 12:44:00;;;;;;;25.70;8.80;;;1.70;1.00;;;;;;4401625;28;659628;-71
2022/03/06 12:46:48;;;;;;;17.03;7.13;;;1.60;1.00;;;;;;4375250;28;659153;-71
2022/03/06 12:49:37;;;;;;;21.70;8.00;;;1.60;1.00;;;;;;4379829;28;657644;-71
2022/03/06 12:52:26;;;;;;;23.80;8.47;;;1.60;1.00;;;;;;4398367;28;658286;-71
2022/03/06 12:55:15;;;;;;;100.90;22.13;;;1.60;1.00;;;;;;4374038;28;657787;-71
2022/03/06 12:58:08;;;;;;;42.00;13.37;;;1.60;1.00;;;;;;4373081;28;660665;-71
2022/03/06 13:00:58;;;;;;;36.60;13.20;;;1.60;1.00;;;;;;4354544;28;659495;-71
2022/03/06 13:03:50;;;;;;;28.00;10.23;;;1.60;1.00;;;;;;4384924;28;659433;-71
2022/03/06 13:06:39;;;;;;;10.97;5.23;;;1.60;1.00;;;;;;4376667;28;660009;-71
2022/03/06 13:09:29;;;;;;;9.03;4.50;;;1.60;1.00;;;;;;4377940;28;657398;-71
2022/03/06 13:12:17;;;;;;;8.80;4.30;;;1.60;1.00;;;;;;4378426;28;656617;-71
2022/03/06 13:15:05;;;;;;;8.43;3.87;;;1.40;1.00;;;;;;4396675;28;657101;-71
2022/03/06 13:17:57;;;;;;;11.80;4.97;;;1.30;1.00;;;;;;4376594;28;657843;-71
2022/03/06 13:20:45;;;;;;;9.83;4.90;;;1.20;1.00;;;;;;4368311;28;657681;-71
2022/03/06 13:23:34;;;;;;;8.68;4.55;;;1.10;1.00;;;;;;4379776;28;658096;-71
2022/03/06 13:26:21;;;;;;;12.13;5.63;;;1.10;1.00;;;;;;4381439;28;656858;-71
2022/03/06 13:29:14;;;;;;;13.37;6.03;;;1.10;1.00;;;;;;4398493;28;657661;-71
2022/03/06 13:32:04;;;;;;;39.33;13.13;;;1.10;1.00;;;;;;4357264;28;658931;-71
2022/03/06 13:34:52;;;;;;;19.17;8.10;;;1.00;1.00;;;;;;4374370;28;659782;-71
2022/03/06 13:37:40;;;;;;;11.55;5.65;;;1.00;1.00;;;;;;4398253;28;657958;-71
2022/03/06 13:40:30;;;;;;;15.67;6.30;;;1.00;1.00;;;;;;4379784;28;659472;-71
2022/03/06 13:43:18;;;;;;;40.47;11.40;;;1.00;1.00;;;;;;4375574;28;659304;-71
2022/03/06 13:46:10;;;;;;;56.47;16.43;;;1.00;1.00;;;;;;4376999;28;658471;-71
2022/03/06 13:49:11;;;;;;;38.03;12.68;;;1.00;1.00;;;;;;4377637;28;659840;-71
2022/03/06 13:52:05;;;;;;;43.20;14.23;;;1.10;1.00;;;;;;4373614;28;658711;-71
2022/03/06 13:55:03;;;;;;;9.83;5.07;;;1.00;1.00;;;;;;4340525;28;659005;-71
2022/03/06 13:58:03;;;;;;;25.33;9.83;;;1.00;1.00;;;;;;4347098;28;657108;-71
2022/03/06 14:00:52;;;;;;;8.45;4.88;;;1.00;1.00;;;;;;4337536;28;658267;-71
2022/03/06 14:03:39;;;;;;;9.27;4.50;;;0.90;1.00;;;;;;4394012;28;657126;-71
2022/03/06 14:06:40;;;;;;;8.77;4.13;;;0.90;1.00;;;;;;4374659;28;657850;-71
2022/03/06 14:09:28;;;;;;;8.03;4.20;;;0.90;1.00;;;;;;4332603;28;657370;-71
2022/03/06 14:12:17;;;;;;;9.10;4.40;;;0.80;1.00;;;;;;4372207;28;657438;-71
2022/03/06 14:15:23;;;;;;;8.30;4.40;;;0.70;1.00;;;;;;4397156;28;656887;-71
2022/03/06 14:18:11;;;;;;;12.27;4.70;;;0.70;1.00;;;;;;4355161;28;656671;-71
2022/03/06 14:20:58;;;;;;;10.90;4.63;;;0.60;1.00;;;;;;4398687;28;659041;-71
2022/03/06 14:23:46;;;;;;;8.63;4.37;;;0.50;1.00;;;;;;4377174;28;657610;-71
2022/03/06 14:26:34;;;;;;;7.32;3.85;;;0.50;1.00;;;;;;4400488;28;657712;-71
2022/03/06 14:29:23;;;;;;;7.70;4.43;;;0.50;1.00;;;;;;4383350;28;657148;-71